sensor_id;sensor_type;location;lat;lon;timestamp;P1;durP1;ratioP1;P2;durP2;ratioP2
58864;SDS011;45702;52.982;6.658;2023-10-09T00:02:10;19.55;;;6.72;;
58864;SDS011;45702;52.982;6.658;2023-10-09T00:04:40;21.25;;;7.50;;
58864;SDS011;45702;52.982;6.658;2023-10-09T00:07:08;20.20;;;7.07;;
58864;SDS011;45702;52.982;6.658;2023-10-09T00:09:36;23.13;;;7.35;;
58864;SDS011;45702;52.982;6.658;2023-10-09T00:12:20;24.13;;;7.13;;
58864;SDS011;45702;52.982;6.658;2023-10-09T00:14:50;22.75;;;8.18;;
58864;SDS011;45702;52.982;6.658;2023-10-09T00:17:35;22.73;;;8.65;;
58864;SDS011;45702;52.982;6.658;2023-10-09T00:20:02;23.05;;;8.55;;
58864;SDS011;45702;52.982;6.658;2023-10-09T00:22:42;28.88;;;9.50;;
58864;SDS011;45702;52.982;6.658;2023-10-09T00:25:11;24.73;;;8.98;;
58864;SDS011;45702;52.982;6.658;2023-10-09T00:27:41;23.33;;;9.32;;
58864;SDS011;45702;52.982;6.658;2023-10-09T00:30:11;25.92;;;9.60;;
58864;SDS011;45702;52.982;6.658;2023-10-09T00:32:42;25.20;;;10.73;;
58864;SDS011;45702;52.982;6.658;2023-10-09T00:35:17;37.55;;;11.05;;
58864;SDS011;45702;52.982;6.658;2023-10-09T00:38:02;28.25;;;10.70;;
58864;SDS011;45702;52.982;6.658;2023-10-09T00:40:40;30.77;;;10.30;;
58864;SDS011;45702;52.982;6.658;2023-10-09T00:43:12;31.50;;;11.18;;
58864;SDS011;45702;52.982;6.658;2023-10-09T00:45:39;29.80;;;10.57;;
58864;SDS011;45702;52.982;6.658;2023-10-09T00:48:08;30.85;;;10.77;;
58864;SDS011;45702;52.982;6.658;2023-10-09T00:50:35;31.80;;;11.45;;
58864;SDS011;45702;52.982;6.658;2023-10-09T00:53:01;28.20;;;11.50;;
58864;SDS011;45702;52.982;6.658;2023-10-09T00:55:34;36.63;;;11.88;;
58864;SDS011;45702;52.982;6.658;2023-10-09T00:58:01;35.53;;;12.75;;
58864;SDS011;45702;52.982;6.658;2023-10-09T01:00:34;33.40;;;12.20;;
58864;SDS011;45702;52.982;6.658;2023-10-09T01:03:09;35.47;;;11.95;;
58864;SDS011;45702;52.982;6.658;2023-10-09T01:05:43;36.58;;;13.02;;
58864;SDS011;45702;52.982;6.658;2023-10-09T01:08:39;43.28;;;13.23;;
58864;SDS011;45702;52.982;6.658;2023-10-09T01:11:06;35.22;;;13.05;;
58864;SDS011;45702;52.982;6.658;2023-10-09T01:13:43;39.53;;;13.35;;
58864;SDS011;45702;52.982;6.658;2023-10-09T01:16:13;46.22;;;15.18;;
58864;SDS011;45702;52.982;6.658;2023-10-09T01:18:46;44.03;;;15.23;;
58864;SDS011;45702;52.982;6.658;2023-10-09T01:21:16;44.22;;;15.70;;
58864;SDS011;45702;52.982;6.658;2023-10-09T01:23:43;46.38;;;16.63;;
58864;SDS011;45702;52.982;6.658;2023-10-09T01:26:25;53.90;;;18.17;;
58864;SDS011;45702;52.982;6.658;2023-10-09T01:28:51;59.80;;;20.15;;
58864;SDS011;45702;52.982;6.658;2023-10-09T01:31:23;59.08;;;20.45;;
58864;SDS011;45702;52.982;6.658;2023-10-09T01:36:24;50.60;;;18.83;;
58864;SDS011;45702;52.982;6.658;2023-10-09T01:38:58;56.42;;;20.17;;
58864;SDS011;45702;52.982;6.658;2023-10-09T01:43:50;61.25;;;20.05;;
58864;SDS011;45702;52.982;6.658;2023-10-09T01:46:25;57.80;;;20.02;;
58864;SDS011;45702;52.982;6.658;2023-10-09T01:48:51;63.00;;;21.25;;
58864;SDS011;45702;52.982;6.658;2023-10-09T01:51:19;61.45;;;20.65;;
58864;SDS011;45702;52.982;6.658;2023-10-09T01:53:45;60.97;;;21.13;;
58864;SDS011;45702;52.982;6.658;2023-10-09T01:56:19;61.60;;;22.67;;
58864;SDS011;45702;52.982;6.658;2023-10-09T01:58:45;63.70;;;23.00;;
58864;SDS011;45702;52.982;6.658;2023-10-09T02:01:12;59.55;;;21.23;;
58864;SDS011;45702;52.982;6.658;2023-10-09T02:03:39;63.35;;;21.65;;
58864;SDS011;45702;52.982;6.658;2023-10-09T02:06:07;63.65;;;22.25;;
58864;SDS011;45702;52.982;6.658;2023-10-09T02:08:51;70.53;;;22.50;;
58864;SDS011;45702;52.982;6.658;2023-10-09T02:11:18;61.58;;;23.17;;
58864;SDS011;45702;52.982;6.658;2023-10-09T02:14:01;65.97;;;23.50;;
58864;SDS011;45702;52.982;6.658;2023-10-09T02:16:31;64.07;;;23.48;;
58864;SDS011;45702;52.982;6.658;2023-10-09T02:19:07;67.70;;;23.80;;
58864;SDS011;45702;52.982;6.658;2023-10-09T02:21:55;69.55;;;24.08;;
58864;SDS011;45702;52.982;6.658;2023-10-09T02:24:23;72.75;;;25.10;;
58864;SDS011;45702;52.982;6.658;2023-10-09T02:27:12;62.92;;;23.80;;
58864;SDS011;45702;52.982;6.658;2023-10-09T02:29:44;70.40;;;23.92;;
58864;SDS011;45702;52.982;6.658;2023-10-09T02:34:51;72.78;;;24.33;;
58864;SDS011;45702;52.982;6.658;2023-10-09T02:37:19;70.53;;;24.42;;
58864;SDS011;45702;52.982;6.658;2023-10-09T02:39:49;79.22;;;26.80;;
58864;SDS011;45702;52.982;6.658;2023-10-09T02:42:17;68.55;;;25.98;;
58864;SDS011;45702;52.982;6.658;2023-10-09T02:44:49;76.50;;;25.92;;
58864;SDS011;45702;52.982;6.658;2023-10-09T02:47:17;78.07;;;26.63;;
58864;SDS011;45702;52.982;6.658;2023-10-09T02:49:54;73.88;;;26.80;;
58864;SDS011;45702;52.982;6.658;2023-10-09T02:52:25;78.20;;;27.33;;
58864;SDS011;45702;52.982;6.658;2023-10-09T02:54:57;87.07;;;27.02;;
58864;SDS011;45702;52.982;6.658;2023-10-09T02:57:32;75.78;;;27.60;;
58864;SDS011;45702;52.982;6.658;2023-10-09T03:00:07;81.57;;;27.48;;
58864;SDS011;45702;52.982;6.658;2023-10-09T03:02:44;84.97;;;28.70;;
58864;SDS011;45702;52.982;6.658;2023-10-09T03:05:11;82.90;;;28.80;;
58864;SDS011;45702;52.982;6.658;2023-10-09T03:07:38;86.55;;;28.48;;
58864;SDS011;45702;52.982;6.658;2023-10-09T03:10:05;85.10;;;29.23;;
58864;SDS011;45702;52.982;6.658;2023-10-09T03:12:35;92.00;;;29.75;;
58864;SDS011;45702;52.982;6.658;2023-10-09T03:15:00;88.07;;;30.17;;
58864;SDS011;45702;52.982;6.658;2023-10-09T03:17:27;99.72;;;32.22;;
58864;SDS011;45702;52.982;6.658;2023-10-09T03:19:53;98.35;;;31.17;;
58864;SDS011;45702;52.982;6.658;2023-10-09T03:22:19;100.82;;;31.88;;
58864;SDS011;45702;52.982;6.658;2023-10-09T03:24:45;88.32;;;31.23;;
58864;SDS011;45702;52.982;6.658;2023-10-09T03:27:11;101.90;;;33.10;;
58864;SDS011;45702;52.982;6.658;2023-10-09T03:29:39;91.57;;;33.15;;
58864;SDS011;45702;52.982;6.658;2023-10-09T03:32:04;105.32;;;34.97;;
58864;SDS011;45702;52.982;6.658;2023-10-09T03:34:31;104.72;;;34.60;;
58864;SDS011;45702;52.982;6.658;2023-10-09T03:36:57;107.68;;;35.78;;
58864;SDS011;45702;52.982;6.658;2023-10-09T03:39:32;109.28;;;35.70;;
58864;SDS011;45702;52.982;6.658;2023-10-09T03:41:59;122.28;;;36.42;;
58864;SDS011;45702;52.982;6.658;2023-10-09T03:44:29;109.53;;;36.33;;
58864;SDS011;45702;52.982;6.658;2023-10-09T03:46:58;106.25;;;35.95;;
58864;SDS011;45702;52.982;6.658;2023-10-09T03:49:24;112.45;;;37.60;;
58864;SDS011;45702;52.982;6.658;2023-10-09T03:51:51;118.15;;;37.50;;
58864;SDS011;45702;52.982;6.658;2023-10-09T03:54:17;118.97;;;37.58;;
58864;SDS011;45702;52.982;6.658;2023-10-09T03:56:46;113.60;;;38.70;;
58864;SDS011;45702;52.982;6.658;2023-10-09T03:59:15;120.05;;;38.10;;
58864;SDS011;45702;52.982;6.658;2023-10-09T04:01:42;119.40;;;38.72;;
58864;SDS011;45702;52.982;6.658;2023-10-09T04:04:09;119.93;;;38.78;;
58864;SDS011;45702;52.982;6.658;2023-10-09T04:06:38;118.47;;;38.40;;
58864;SDS011;45702;52.982;6.658;2023-10-09T04:09:05;116.45;;;38.25;;
58864;SDS011;45702;52.982;6.658;2023-10-09T04:11:59;113.22;;;39.63;;
58864;SDS011;45702;52.982;6.658;2023-10-09T04:14:48;117.82;;;37.70;;
58864;SDS011;45702;52.982;6.658;2023-10-09T04:17:26;116.03;;;37.20;;
58864;SDS011;45702;52.982;6.658;2023-10-09T04:19:54;119.07;;;37.15;;
58864;SDS011;45702;52.982;6.658;2023-10-09T04:22:39;120.47;;;38.50;;
58864;SDS011;45702;52.982;6.658;2023-10-09T04:25:35;118.05;;;38.72;;
58864;SDS011;45702;52.982;6.658;2023-10-09T04:28:07;122.63;;;39.75;;
58864;SDS011;45702;52.982;6.658;2023-10-09T04:30:54;121.72;;;38.65;;
58864;SDS011;45702;52.982;6.658;2023-10-09T04:33:21;121.90;;;37.72;;
58864;SDS011;45702;52.982;6.658;2023-10-09T04:36:04;113.95;;;37.58;;
58864;SDS011;45702;52.982;6.658;2023-10-09T04:38:46;121.28;;;38.72;;
58864;SDS011;45702;52.982;6.658;2023-10-09T04:41:35;124.43;;;40.33;;
58864;SDS011;45702;52.982;6.658;2023-10-09T04:44:06;120.68;;;39.25;;
58864;SDS011;45702;52.982;6.658;2023-10-09T04:46:45;121.45;;;39.70;;
58864;SDS011;45702;52.982;6.658;2023-10-09T04:49:31;112.93;;;38.92;;
58864;SDS011;45702;52.982;6.658;2023-10-09T04:52:18;122.35;;;39.08;;
58864;SDS011;45702;52.982;6.658;2023-10-09T04:54:56;127.90;;;40.70;;
58864;SDS011;45702;52.982;6.658;2023-10-09T04:57:35;119.82;;;37.63;;
58864;SDS011;45702;52.982;6.658;2023-10-09T05:00:24;127.03;;;39.30;;
58864;SDS011;45702;52.982;6.658;2023-10-09T05:02:53;130.43;;;38.50;;
58864;SDS011;45702;52.982;6.658;2023-10-09T05:05:21;119.65;;;38.88;;
58864;SDS011;45702;52.982;6.658;2023-10-09T05:08:06;121.50;;;40.17;;
58864;SDS011;45702;52.982;6.658;2023-10-09T05:10:47;121.22;;;40.00;;
58864;SDS011;45702;52.982;6.658;2023-10-09T05:13:30;124.97;;;40.17;;
58864;SDS011;45702;52.982;6.658;2023-10-09T05:16:04;124.82;;;40.20;;
58864;SDS011;45702;52.982;6.658;2023-10-09T05:18:38;132.18;;;39.63;;
58864;SDS011;45702;52.982;6.658;2023-10-09T05:21:04;115.25;;;38.85;;
58864;SDS011;45702;52.982;6.658;2023-10-09T05:23:49;124.68;;;39.53;;
58864;SDS011;45702;52.982;6.658;2023-10-09T05:26:35;117.75;;;39.17;;
58864;SDS011;45702;52.982;6.658;2023-10-09T05:31:58;128.05;;;38.72;;
58864;SDS011;45702;52.982;6.658;2023-10-09T05:34:43;123.97;;;39.80;;
58864;SDS011;45702;52.982;6.658;2023-10-09T05:37:25;111.30;;;38.50;;
58864;SDS011;45702;52.982;6.658;2023-10-09T05:39:57;119.53;;;37.22;;
58864;SDS011;45702;52.982;6.658;2023-10-09T05:42:27;104.95;;;36.30;;
58864;SDS011;45702;52.982;6.658;2023-10-09T05:45:10;106.65;;;35.55;;
58864;SDS011;45702;52.982;6.658;2023-10-09T05:47:42;99.13;;;35.78;;
58864;SDS011;45702;52.982;6.658;2023-10-09T05:50:30;111.38;;;36.22;;
58864;SDS011;45702;52.982;6.658;2023-10-09T05:52:59;101.70;;;35.08;;
58864;SDS011;45702;52.982;6.658;2023-10-09T05:55:27;102.50;;;33.97;;
58864;SDS011;45702;52.982;6.658;2023-10-09T05:58:12;91.63;;;32.63;;
58864;SDS011;45702;52.982;6.658;2023-10-09T06:00:41;90.85;;;32.17;;
58864;SDS011;45702;52.982;6.658;2023-10-09T06:03:25;83.45;;;31.08;;
58864;SDS011;45702;52.982;6.658;2023-10-09T06:06:10;87.60;;;31.25;;
58864;SDS011;45702;52.982;6.658;2023-10-09T06:08:43;75.72;;;30.25;;
58864;SDS011;45702;52.982;6.658;2023-10-09T06:11:09;77.22;;;29.58;;
58864;SDS011;45702;52.982;6.658;2023-10-09T06:13:55;79.88;;;29.10;;
58864;SDS011;45702;52.982;6.658;2023-10-09T06:16:40;71.50;;;28.33;;
58864;SDS011;45702;52.982;6.658;2023-10-09T06:19:08;74.53;;;28.17;;
58864;SDS011;45702;52.982;6.658;2023-10-09T06:21:51;76.53;;;27.63;;
58864;SDS011;45702;52.982;6.658;2023-10-09T06:26:45;69.18;;;26.20;;
58864;SDS011;45702;52.982;6.658;2023-10-09T06:29:24;66.32;;;26.10;;
58864;SDS011;45702;52.982;6.658;2023-10-09T06:32:05;67.70;;;24.95;;
58864;SDS011;45702;52.982;6.658;2023-10-09T06:34:53;64.47;;;24.15;;
58864;SDS011;45702;52.982;6.658;2023-10-09T06:37:44;64.50;;;23.25;;
58864;SDS011;45702;52.982;6.658;2023-10-09T06:43:12;58.60;;;22.10;;
58864;SDS011;45702;52.982;6.658;2023-10-09T06:45:51;58.25;;;21.05;;
58864;SDS011;45702;52.982;6.658;2023-10-09T06:48:26;59.75;;;20.35;;
58864;SDS011;45702;52.982;6.658;2023-10-09T06:51:08;49.25;;;20.20;;
58864;SDS011;45702;52.982;6.658;2023-10-09T06:53:39;48.55;;;19.80;;
58864;SDS011;45702;52.982;6.658;2023-10-09T06:56:24;46.00;;;18.08;;
58864;SDS011;45702;52.982;6.658;2023-10-09T06:58:54;51.00;;;17.75;;
58864;SDS011;45702;52.982;6.658;2023-10-09T07:01:23;48.58;;;18.85;;
58864;SDS011;45702;52.982;6.658;2023-10-09T07:03:56;48.60;;;18.50;;
58864;SDS011;45702;52.982;6.658;2023-10-09T07:06:51;50.45;;;18.52;;
58864;SDS011;45702;52.982;6.658;2023-10-09T07:09:17;42.80;;;16.90;;
58864;SDS011;45702;52.982;6.658;2023-10-09T07:11:51;46.53;;;17.48;;
58864;SDS011;45702;52.982;6.658;2023-10-09T07:14:23;47.25;;;17.52;;
58864;SDS011;45702;52.982;6.658;2023-10-09T07:19:28;51.92;;;17.40;;
58864;SDS011;45702;52.982;6.658;2023-10-09T07:22:07;45.95;;;16.92;;
58864;SDS011;45702;52.982;6.658;2023-10-09T07:24:52;42.55;;;16.67;;
58864;SDS011;45702;52.982;6.658;2023-10-09T07:27:23;51.78;;;16.38;;
58864;SDS011;45702;52.982;6.658;2023-10-09T07:32:55;43.33;;;15.63;;
58864;SDS011;45702;52.982;6.658;2023-10-09T07:35:33;46.85;;;16.25;;
58864;SDS011;45702;52.982;6.658;2023-10-09T07:38:09;52.65;;;16.77;;
58864;SDS011;45702;52.982;6.658;2023-10-09T07:40:40;45.05;;;15.80;;
58864;SDS011;45702;52.982;6.658;2023-10-09T07:43:29;48.83;;;16.13;;
58864;SDS011;45702;52.982;6.658;2023-10-09T07:46:25;50.60;;;16.30;;
58864;SDS011;45702;52.982;6.658;2023-10-09T07:49:10;49.67;;;16.60;;
58864;SDS011;45702;52.982;6.658;2023-10-09T07:51:37;50.40;;;15.68;;
58864;SDS011;45702;52.982;6.658;2023-10-09T07:54:08;42.28;;;16.60;;
58864;SDS011;45702;52.982;6.658;2023-10-09T07:56:40;43.78;;;16.60;;
58864;SDS011;45702;52.982;6.658;2023-10-09T07:59:09;48.20;;;16.08;;
58864;SDS011;45702;52.982;6.658;2023-10-09T08:01:41;50.60;;;17.85;;
58864;SDS011;45702;52.982;6.658;2023-10-09T08:04:19;49.72;;;16.80;;
58864;SDS011;45702;52.982;6.658;2023-10-09T08:07:13;48.22;;;16.83;;
58864;SDS011;45702;52.982;6.658;2023-10-09T08:09:59;47.67;;;16.05;;
58864;SDS011;45702;52.982;6.658;2023-10-09T08:12:44;52.70;;;17.60;;
58864;SDS011;45702;52.982;6.658;2023-10-09T08:15:22;45.22;;;17.00;;
58864;SDS011;45702;52.982;6.658;2023-10-09T08:17:52;44.38;;;16.35;;
58864;SDS011;45702;52.982;6.658;2023-10-09T08:20:24;47.45;;;16.73;;
58864;SDS011;45702;52.982;6.658;2023-10-09T08:22:54;47.83;;;17.63;;
58864;SDS011;45702;52.982;6.658;2023-10-09T08:25:23;49.92;;;18.13;;
58864;SDS011;45702;52.982;6.658;2023-10-09T08:27:53;51.55;;;17.77;;
58864;SDS011;45702;52.982;6.658;2023-10-09T08:30:20;54.78;;;17.33;;
58864;SDS011;45702;52.982;6.658;2023-10-09T08:32:50;50.30;;;17.63;;
58864;SDS011;45702;52.982;6.658;2023-10-09T08:35:28;52.05;;;18.27;;
58864;SDS011;45702;52.982;6.658;2023-10-09T08:37:58;47.47;;;16.92;;
58864;SDS011;45702;52.982;6.658;2023-10-09T08:40:31;51.55;;;16.75;;
58864;SDS011;45702;52.982;6.658;2023-10-09T08:43:04;49.67;;;16.63;;
58864;SDS011;45702;52.982;6.658;2023-10-09T08:45:39;48.17;;;15.88;;
58864;SDS011;45702;52.982;6.658;2023-10-09T08:48:08;51.90;;;17.02;;
58864;SDS011;45702;52.982;6.658;2023-10-09T08:50:40;43.00;;;15.82;;
58864;SDS011;45702;52.982;6.658;2023-10-09T08:53:12;44.85;;;15.63;;
58864;SDS011;45702;52.982;6.658;2023-10-09T08:55:38;53.85;;;17.25;;
58864;SDS011;45702;52.982;6.658;2023-10-09T08:58:05;55.47;;;17.08;;
58864;SDS011;45702;52.982;6.658;2023-10-09T09:00:39;45.75;;;16.33;;
58864;SDS011;45702;52.982;6.658;2023-10-09T09:03:10;51.67;;;17.25;;
58864;SDS011;45702;52.982;6.658;2023-10-09T09:05:47;46.47;;;16.42;;
58864;SDS011;45702;52.982;6.658;2023-10-09T09:08:23;55.05;;;17.30;;
58864;SDS011;45702;52.982;6.658;2023-10-09T09:10:57;47.53;;;17.20;;
58864;SDS011;45702;52.982;6.658;2023-10-09T09:13:41;47.40;;;15.63;;
58864;SDS011;45702;52.982;6.658;2023-10-09T09:16:14;48.10;;;16.60;;
58864;SDS011;45702;52.982;6.658;2023-10-09T09:18:55;40.78;;;15.70;;
58864;SDS011;45702;52.982;6.658;2023-10-09T09:21:34;42.95;;;14.93;;
58864;SDS011;45702;52.982;6.658;2023-10-09T09:24:14;49.05;;;16.83;;
58864;SDS011;45702;52.982;6.658;2023-10-09T09:26:56;50.20;;;16.23;;
58864;SDS011;45702;52.982;6.658;2023-10-09T09:32:04;52.45;;;16.50;;
58864;SDS011;45702;52.982;6.658;2023-10-09T09:34:46;51.78;;;17.50;;
58864;SDS011;45702;52.982;6.658;2023-10-09T09:37:20;51.70;;;17.63;;
58864;SDS011;45702;52.982;6.658;2023-10-09T09:39:46;51.15;;;17.27;;
58864;SDS011;45702;52.982;6.658;2023-10-09T09:42:36;55.35;;;17.35;;
58864;SDS011;45702;52.982;6.658;2023-10-09T09:45:03;43.63;;;16.90;;
58864;SDS011;45702;52.982;6.658;2023-10-09T09:50:00;57.95;;;18.13;;
58864;SDS011;45702;52.982;6.658;2023-10-09T09:52:47;61.85;;;19.55;;
58864;SDS011;45702;52.982;6.658;2023-10-09T09:55:18;57.75;;;19.40;;
58864;SDS011;45702;52.982;6.658;2023-10-09T09:57:48;56.42;;;19.52;;
58864;SDS011;45702;52.982;6.658;2023-10-09T10:00:21;51.35;;;19.17;;
58864;SDS011;45702;52.982;6.658;2023-10-09T10:03:09;45.20;;;18.90;;
58864;SDS011;45702;52.982;6.658;2023-10-09T10:05:54;44.97;;;17.10;;
58864;SDS011;45702;52.982;6.658;2023-10-09T10:08:22;53.63;;;18.27;;
58864;SDS011;45702;52.982;6.658;2023-10-09T10:10:57;49.58;;;17.40;;
58864;SDS011;45702;52.982;6.658;2023-10-09T10:16:08;55.47;;;17.98;;
58864;SDS011;45702;52.982;6.658;2023-10-09T10:21:39;49.25;;;18.88;;
58864;SDS011;45702;52.982;6.658;2023-10-09T10:35:19;46.42;;;17.20;;
58864;SDS011;45702;52.982;6.658;2023-10-09T10:38:00;43.72;;;17.35;;
58864;SDS011;45702;52.982;6.658;2023-10-09T10:40:29;44.05;;;16.30;;
58864;SDS011;45702;52.982;6.658;2023-10-09T10:43:04;45.15;;;16.10;;
58864;SDS011;45702;52.982;6.658;2023-10-09T10:46:00;48.03;;;16.50;;
58864;SDS011;45702;52.982;6.658;2023-10-09T10:48:34;46.90;;;16.20;;
58864;SDS011;45702;52.982;6.658;2023-10-09T10:51:04;36.85;;;15.57;;
58864;SDS011;45702;52.982;6.658;2023-10-09T10:53:30;48.75;;;16.05;;
58864;SDS011;45702;52.982;6.658;2023-10-09T10:56:14;43.45;;;15.02;;
58864;SDS011;45702;52.982;6.658;2023-10-09T10:58:40;50.42;;;15.52;;
58864;SDS011;45702;52.982;6.658;2023-10-09T11:01:19;47.72;;;15.48;;
58864;SDS011;45702;52.982;6.658;2023-10-09T11:03:49;48.47;;;14.77;;
58864;SDS011;45702;52.982;6.658;2023-10-09T11:06:27;46.40;;;15.10;;
58864;SDS011;45702;52.982;6.658;2023-10-09T11:09:04;47.50;;;15.45;;
58864;SDS011;45702;52.982;6.658;2023-10-09T11:11:47;49.22;;;14.73;;
58864;SDS011;45702;52.982;6.658;2023-10-09T11:14:16;47.38;;;15.10;;
58864;SDS011;45702;52.982;6.658;2023-10-09T11:16:48;45.10;;;15.30;;
58864;SDS011;45702;52.982;6.658;2023-10-09T11:19:22;40.80;;;14.80;;
58864;SDS011;45702;52.982;6.658;2023-10-09T11:22:01;40.55;;;14.30;;
58864;SDS011;45702;52.982;6.658;2023-10-09T11:24:33;42.05;;;14.75;;
58864;SDS011;45702;52.982;6.658;2023-10-09T11:27:03;47.25;;;14.68;;
58864;SDS011;45702;52.982;6.658;2023-10-09T11:29:47;52.03;;;14.70;;
58864;SDS011;45702;52.982;6.658;2023-10-09T11:32:17;42.85;;;15.10;;
58864;SDS011;45702;52.982;6.658;2023-10-09T11:34:45;46.50;;;14.82;;
58864;SDS011;45702;52.982;6.658;2023-10-09T11:37:18;46.83;;;15.15;;
58864;SDS011;45702;52.982;6.658;2023-10-09T11:40:30;48.08;;;16.77;;
58864;SDS011;45702;52.982;6.658;2023-10-09T11:43:13;53.55;;;15.82;;
58864;SDS011;45702;52.982;6.658;2023-10-09T11:45:39;51.63;;;15.30;;
58864;SDS011;45702;52.982;6.658;2023-10-09T11:48:19;53.30;;;17.30;;
58864;SDS011;45702;52.982;6.658;2023-10-09T11:51:12;43.65;;;15.20;;
58864;SDS011;45702;52.982;6.658;2023-10-09T11:53:44;56.10;;;15.25;;
58864;SDS011;45702;52.982;6.658;2023-10-09T11:56:22;44.67;;;14.40;;
58864;SDS011;45702;52.982;6.658;2023-10-09T11:58:52;47.75;;;15.02;;
58864;SDS011;45702;52.982;6.658;2023-10-09T12:01:18;44.70;;;15.55;;
58864;SDS011;45702;52.982;6.658;2023-10-09T12:03:51;43.63;;;13.57;;
58864;SDS011;45702;52.982;6.658;2023-10-09T12:06:21;44.30;;;13.85;;
58864;SDS011;45702;52.982;6.658;2023-10-09T12:08:55;48.92;;;14.50;;
58864;SDS011;45702;52.982;6.658;2023-10-09T12:11:23;47.03;;;14.30;;
58864;SDS011;45702;52.982;6.658;2023-10-09T12:13:55;53.65;;;14.45;;
58864;SDS011;45702;52.982;6.658;2023-10-09T12:16:23;39.75;;;12.68;;
58864;SDS011;45702;52.982;6.658;2023-10-09T12:18:56;44.78;;;13.30;;
58864;SDS011;45702;52.982;6.658;2023-10-09T12:21:23;36.50;;;13.48;;
58864;SDS011;45702;52.982;6.658;2023-10-09T12:23:52;37.85;;;13.02;;
58864;SDS011;45702;52.982;6.658;2023-10-09T12:26:27;38.85;;;12.95;;
58864;SDS011;45702;52.982;6.658;2023-10-09T12:28:52;33.30;;;11.80;;
58864;SDS011;45702;52.982;6.658;2023-10-09T12:31:18;28.25;;;11.20;;
58864;SDS011;45702;52.982;6.658;2023-10-09T12:33:45;33.63;;;11.25;;
58864;SDS011;45702;52.982;6.658;2023-10-09T12:36:12;29.27;;;9.07;;
58864;SDS011;45702;52.982;6.658;2023-10-09T12:38:44;30.50;;;8.48;;
58864;SDS011;45702;52.982;6.658;2023-10-09T12:41:15;27.73;;;7.88;;
58864;SDS011;45702;52.982;6.658;2023-10-09T12:43:52;26.75;;;6.78;;
58864;SDS011;45702;52.982;6.658;2023-10-09T12:46:18;17.83;;;6.63;;
58864;SDS011;45702;52.982;6.658;2023-10-09T12:48:51;17.17;;;6.38;;
58864;SDS011;45702;52.982;6.658;2023-10-09T12:51:19;17.85;;;5.88;;
58864;SDS011;45702;52.982;6.658;2023-10-09T12:53:52;17.17;;;6.00;;
58864;SDS011;45702;52.982;6.658;2023-10-09T12:56:24;20.35;;;6.63;;
58864;SDS011;45702;52.982;6.658;2023-10-09T12:59:22;22.67;;;6.05;;
58864;SDS011;45702;52.982;6.658;2023-10-09T13:01:49;17.08;;;5.38;;
58864;SDS011;45702;52.982;6.658;2023-10-09T13:04:18;21.63;;;5.78;;
58864;SDS011;45702;52.982;6.658;2023-10-09T13:06:47;17.67;;;5.25;;
58864;SDS011;45702;52.982;6.658;2023-10-09T13:09:17;15.68;;;5.30;;
58864;SDS011;45702;52.982;6.658;2023-10-09T13:12:07;20.65;;;7.03;;
58864;SDS011;45702;52.982;6.658;2023-10-09T13:14:34;18.83;;;6.20;;
58864;SDS011;45702;52.982;6.658;2023-10-09T13:17:00;18.30;;;6.28;;
58864;SDS011;45702;52.982;6.658;2023-10-09T13:19:33;22.73;;;6.45;;
58864;SDS011;45702;52.982;6.658;2023-10-09T13:21:59;22.73;;;7.47;;
58864;SDS011;45702;52.982;6.658;2023-10-09T13:24:28;23.05;;;6.68;;
58864;SDS011;45702;52.982;6.658;2023-10-09T13:26:56;19.38;;;6.13;;
58864;SDS011;45702;52.982;6.658;2023-10-09T13:29:23;15.60;;;6.30;;
58864;SDS011;45702;52.982;6.658;2023-10-09T13:31:53;15.13;;;6.47;;
58864;SDS011;45702;52.982;6.658;2023-10-09T13:34:22;19.90;;;6.97;;
58864;SDS011;45702;52.982;6.658;2023-10-09T13:36:53;15.05;;;5.60;;
58864;SDS011;45702;52.982;6.658;2023-10-09T13:39:20;21.13;;;5.87;;
58864;SDS011;45702;52.982;6.658;2023-10-09T13:41:53;21.02;;;5.93;;
58864;SDS011;45702;52.982;6.658;2023-10-09T13:44:24;16.13;;;5.90;;
58864;SDS011;45702;52.982;6.658;2023-10-09T13:46:52;14.77;;;6.20;;
58864;SDS011;45702;52.982;6.658;2023-10-09T13:49:19;19.95;;;6.68;;
58864;SDS011;45702;52.982;6.658;2023-10-09T13:51:51;16.25;;;5.90;;
58864;SDS011;45702;52.982;6.658;2023-10-09T13:54:21;18.25;;;5.90;;
58864;SDS011;45702;52.982;6.658;2023-10-09T13:57:01;16.35;;;6.05;;
58864;SDS011;45702;52.982;6.658;2023-10-09T13:59:35;15.50;;;5.72;;
58864;SDS011;45702;52.982;6.658;2023-10-09T14:02:01;17.17;;;5.80;;
58864;SDS011;45702;52.982;6.658;2023-10-09T14:04:34;19.08;;;5.20;;
58864;SDS011;45702;52.982;6.658;2023-10-09T14:07:00;19.58;;;4.80;;
58864;SDS011;45702;52.982;6.658;2023-10-09T14:09:27;18.15;;;5.57;;
58864;SDS011;45702;52.982;6.658;2023-10-09T14:11:59;12.80;;;4.47;;
58864;SDS011;45702;52.982;6.658;2023-10-09T14:17:12;10.38;;;4.32;;
58864;SDS011;45702;52.982;6.658;2023-10-09T14:19:42;15.57;;;4.57;;
58864;SDS011;45702;52.982;6.658;2023-10-09T14:22:15;16.60;;;4.07;;
58864;SDS011;45702;52.982;6.658;2023-10-09T14:24:45;16.67;;;4.80;;
58864;SDS011;45702;52.982;6.658;2023-10-09T14:27:12;16.90;;;4.40;;
58864;SDS011;45702;52.982;6.658;2023-10-09T14:29:49;23.00;;;5.35;;
58864;SDS011;45702;52.982;6.658;2023-10-09T14:32:15;17.02;;;4.90;;
58864;SDS011;45702;52.982;6.658;2023-10-09T14:34:44;17.55;;;5.38;;
58864;SDS011;45702;52.982;6.658;2023-10-09T14:37:18;14.75;;;4.70;;
58864;SDS011;45702;52.982;6.658;2023-10-09T14:39:44;17.15;;;4.72;;
58864;SDS011;45702;52.982;6.658;2023-10-09T14:42:16;18.50;;;5.20;;
58864;SDS011;45702;52.982;6.658;2023-10-09T14:44:43;21.70;;;5.10;;
58864;SDS011;45702;52.982;6.658;2023-10-09T14:47:12;15.15;;;4.90;;
58864;SDS011;45702;52.982;6.658;2023-10-09T14:49:46;23.23;;;5.32;;
58864;SDS011;45702;52.982;6.658;2023-10-09T14:52:13;15.57;;;4.80;;
58864;SDS011;45702;52.982;6.658;2023-10-09T14:54:44;14.60;;;5.10;;
58864;SDS011;45702;52.982;6.658;2023-10-09T14:57:10;13.88;;;4.53;;
58864;SDS011;45702;52.982;6.658;2023-10-09T14:59:37;12.85;;;4.68;;
58864;SDS011;45702;52.982;6.658;2023-10-09T15:02:03;13.18;;;4.30;;
58864;SDS011;45702;52.982;6.658;2023-10-09T15:04:32;19.45;;;5.13;;
58864;SDS011;45702;52.982;6.658;2023-10-09T15:07:01;19.05;;;4.97;;
58864;SDS011;45702;52.982;6.658;2023-10-09T15:09:27;17.95;;;5.25;;
58864;SDS011;45702;52.982;6.658;2023-10-09T15:11:56;12.18;;;4.68;;
58864;SDS011;45702;52.982;6.658;2023-10-09T15:14:23;19.08;;;5.45;;
58864;SDS011;45702;52.982;6.658;2023-10-09T15:16:48;14.57;;;4.82;;
58864;SDS011;45702;52.982;6.658;2023-10-09T15:19:15;14.98;;;4.05;;
58864;SDS011;45702;52.982;6.658;2023-10-09T15:21:44;16.38;;;4.47;;
58864;SDS011;45702;52.982;6.658;2023-10-09T15:24:13;17.13;;;5.03;;
58864;SDS011;45702;52.982;6.658;2023-10-09T15:26:47;14.38;;;4.20;;
58864;SDS011;45702;52.982;6.658;2023-10-09T15:29:27;18.52;;;4.72;;
58864;SDS011;45702;52.982;6.658;2023-10-09T15:32:00;14.43;;;4.88;;
58864;SDS011;45702;52.982;6.658;2023-10-09T15:34:38;12.88;;;4.90;;
58864;SDS011;45702;52.982;6.658;2023-10-09T15:37:04;19.13;;;4.75;;
58864;SDS011;45702;52.982;6.658;2023-10-09T15:39:32;14.32;;;4.57;;
58864;SDS011;45702;52.982;6.658;2023-10-09T15:41:59;15.18;;;5.43;;
58864;SDS011;45702;52.982;6.658;2023-10-09T15:44:25;16.05;;;4.88;;
58864;SDS011;45702;52.982;6.658;2023-10-09T15:46:51;15.07;;;5.60;;